aviador You're here:

CYWE Decoded Metar

in
Report Time2018-01-16 20:00:00
UTC Time2018-01-16 21:10:43
Flight Rules Old
Wind070° at 05 kt
W.Decomp.*RWY 13: 2.5 kt HW 4.3 kt LCW
W.Rank070° ranks 2
Current wind is below 070° avg. (7.5)
Visibility9999 m
Phenomena:N/A
Clouds:Few 240 Hf
Expected CloudBase > 400 ft AGL from Temp-Dew spread
CeilingNone
Temp-14°C
Dew Point-15°C (92% RH)
AAT-19.2°C
QNH1007 hPa
Raw Report
METAR CYWE 162000Z AUTO 07005KT 9SM FEW240 M14/M15 A2973 RMK SLP111=

Extra information for CYWE:More info

Social comments